• Join FlightAware (Why Join?)
  • Login
  • US Flag 
03:18PM EDT


 

Airport Tracker/Info


-or-


 

Live Flight TrackerFlight Track Log ✈ N102WY ✈ 01-Mar-2014 ✈ KCYS - CYEG

Flight Track Log - Related Links

Times and Time Zones

All times are in EST time to prevent confusion due to time zone crossing. See the N102WY flight status page for this flight to view local times or setup timezone preferences in your user account.

Time Position Orientation Groundspeed Altitude Reporting Facility
EST Latitude Longitude Course Direction KTS MPH feet Rate Location/Type
09:13AM 41.1681 -104.8661 323° Northwest 212 244 9,300  Level Denver Center
09:14AM 41.2183 -104.9147 324° Northwest 228 262 11,600 3,300 Climbing Denver Center
09:15AM 41.2808 -104.9775 323° Northwest 250 288 16,000 3,540 Climbing Denver Center
09:16AM 41.3344 -105.0250 326° Northwest 246 283 18,800 2,280 Climbing Denver Center
09:17AM 41.3897 -105.0742 326° Northwest 247 284 20,700 1,920 Climbing Denver Center
09:18AM 41.6375 -105.2541 323° Northwest  Level FlightAware Approximate
09:18AM 41.4536 -105.1331 325° Northwest 281 323 22,700  Level Denver Center
09:19AM 41.5094 -105.1850 325° Northwest 299 344 24,300 1,980 Climbing Denver Center
09:20AM 41.5994 -105.2686 325° Northwest 305 351 26,800 2,160 Climbing Denver Center
09:21AM 41.6661 -105.3311 325° Northwest 305 351 28,700 2,040 Climbing Denver Center
09:22AM 41.7439 -105.4031 325° Northwest 306 352 31,000 1,860 Climbing Denver Center
09:23AM 41.8111 -105.4647 326° Northwest 305 351 32,500 1,440 Climbing Denver Center
09:24AM 41.8794 -105.5300 325° Northwest 311 358 34,000 1,440 Climbing Denver Center
09:25AM 41.9500 -105.5953 325° Northwest 319 367 35,500 1,560 Climbing Denver Center
09:26AM 42.0308 -105.6719 325° Northwest 318 366 37,200 1,140 Climbing Denver Center
09:27AM 42.0994 -105.7361 325° Northwest 316 364 37,900 360 Climbing Denver Center
09:28AM 42.1722 -105.8058 325° Northwest 329 379 38,000  Climbing Denver Center
09:29AM 42.2558 -105.8858 325° Northwest 329 379 38,000  Level Denver Center
09:30AM 42.3283 -105.9542 325° Northwest 329 379 38,000  Level Denver Center
09:31AM 42.4008 -106.0233 325° Northwest 330 380 38,000  Level Denver Center
09:32AM 42.4889 -106.1072 325° Northwest 340 391 38,000  Level Denver Center
09:33AM 42.5642 -106.1789 325° Northwest 346 398 38,000  Level Denver Center
09:34AM 42.6394 -106.2533 324° Northwest 346 398 38,000  Level Denver Center
09:35AM 42.7169 -106.3258 326° Northwest 349 402 38,000  Level Denver Center
09:36AM 42.8178 -106.4239 325° Northwest 349 402 38,000  Level Denver Center
09:37AM 42.8933 -106.4978 324° Northwest 349 402 38,000  Level Denver Center
09:38AM 42.9814 -106.5844 324° Northwest 349 402 38,000  Level Denver Center
09:39AM 43.0567 -106.6586 324° Northwest 349 402 38,000  Level Denver Center
09:40AM 43.1339 -106.7333 325° Northwest 349 402 38,000  Level Denver Center
09:41AM 43.1969 -106.7958 324° Northwest 350 403 38,000  Level Salt Lake Center
09:42AM 43.2844 -106.8844 324° Northwest 349 402 38,000  Level Salt Lake Center
09:43AM 43.3550 -106.9539 324° Northwest 351 404 38,000  Level Salt Lake Center
09:44AM 43.4336 -107.0325 324° Northwest 350 403 38,000  Level Salt Lake Center
09:45AM 43.5133 -107.1117 324° Northwest 354 407 38,000  Level Salt Lake Center
09:46AM 43.5917 -107.1900 324° Northwest 350 403 38,000  Level Salt Lake Center
09:47AM 43.6694 -107.2689 324° Northwest 349 402 38,000  Level Salt Lake Center
09:48AM 43.7469 -107.3489 323° Northwest 348 400 38,000  Level Salt Lake Center
09:49AM 43.8414 -107.4461 323° Northwest 353 406 38,000  Level Salt Lake Center
09:50AM 43.9217 -107.5256 325° Northwest 356 410 38,000  Level Salt Lake Center
09:51AM 44.0022 -107.6092 323° Northwest 361 415 38,000  Level Salt Lake Center
09:52AM 44.0861 -107.6939 324° Northwest 368 423 38,000  Level Salt Lake Center
09:53AM 44.1697 -107.7797 324° Northwest 373 429 38,000  Level Salt Lake Center
09:54AM 44.2550 -107.8642 325° Northwest 375 432 38,000  Level Salt Lake Center
09:55AM 44.3394 -107.9528 323° Northwest 379 436 38,000  Level Salt Lake Center
09:56AM 44.4256 -108.0408 324° Northwest 381 438 38,000  Level Salt Lake Center
09:57AM 44.5103 -108.1294 323° Northwest 379 436 38,000  Level Salt Lake Center
09:58AM 44.5961 -108.2194 323° Northwest 380 437 38,000  Level Salt Lake Center
09:59AM 44.6811 -108.3097 323° Northwest 381 438 38,000  Level Salt Lake Center
10:00AM 44.7672 -108.3994 324° Northwest 382 440 38,000  Level Salt Lake Center
10:01AM 44.8531 -108.4894 323° Northwest 382 440 38,000  Level Salt Lake Center
10:02AM 44.9386 -108.5806 323° Northwest 383 441 38,000  Level Salt Lake Center
10:03AM 45.0236 -108.6703 323° Northwest 382 440 38,000  Level Salt Lake Center
10:04AM 45.1092 -108.7592 324° Northwest 382 440 38,000  Level Salt Lake Center
10:06AM 45.2061 -108.8297 333° Northwest 389 448 38,000  Level Salt Lake Center
10:07AM 45.2986 -108.9050 330° Northwest 385 443 38,000  Level Salt Lake Center
10:08AM 45.3931 -108.9781 331° Northwest 386 444 38,000  Level Salt Lake Center
10:09AM 45.5050 -109.0667 331° Northwest 385 443 38,000  Level Salt Lake Center
10:10AM 45.5969 -109.1389 331° Northwest 379 436 38,000  Level Salt Lake Center
10:11AM 45.6881 -109.2122 331° Northwest 377 434 38,000  Level Salt Lake Center
10:12AM 45.7794 -109.2847 331° Northwest 376 433 38,000  Level Salt Lake Center
10:13AM 45.8703 -109.3586 330° Northwest 376 433 38,000  Level Salt Lake Center
10:14AM 45.9614 -109.4322 331° Northwest 377 434 38,000  Level Salt Lake Center
10:15AM 46.0506 -109.5058 330° Northwest 372 428 38,000  Level Salt Lake Center
10:16AM 46.1406 -109.5789 331° Northwest 372 428 38,000  Level Salt Lake Center
10:17AM 46.2306 -109.6511 331° Northwest 371 427 38,000  Level Salt Lake Center
10:18AM 46.3197 -109.7258 330° Northwest 373 429 38,000  Level Salt Lake Center
10:19AM 46.4097 -109.8008 330° Northwest 374 430 38,000  Level Salt Lake Center
10:20AM 46.4969 -109.8764 329° Northwest 369 425 38,000  Level Salt Lake Center
10:21AM 46.6042 -109.9642 331° Northwest 369 425 38,000  Level Salt Lake Center
10:22AM 46.6922 -110.0372 330° Northwest 366 421 38,000  Level Salt Lake Center
10:23AM 46.7669 -110.0958 332° Northwest 367 422 38,000  Level Salt Lake Center
10:24AM 46.8725 -110.1839 330° Northwest 366 421 38,000  Level Salt Lake Center
10:25AM 46.9592 -110.2575 330° Northwest 363 418 38,000  Level Salt Lake Center
10:26AM 47.0450 -110.3325 329° Northwest 361 415 38,000  Level Salt Lake Center
10:27AM 47.1314 -110.4067 330° Northwest 361 415 38,000  Level Salt Lake Center
10:28AM 47.2181 -110.4817 330° Northwest 363 418 38,000  Level Salt Lake Center
10:29AM 47.3050 -110.5572 329° Northwest 364 419 38,000  Level Salt Lake Center
10:30AM 47.3933 -110.6308 331° Northwest 366 421 38,000  Level Salt Lake Center
10:31AM 47.4819 -110.7072 330° Northwest 369 425 38,000  Level Salt Lake Center
10:32AM 47.5683 -110.7844 329° Northwest 368 423 38,000  Level Salt Lake Center
10:33AM 47.6733 -110.8750 330° Northwest 367 422 38,000  Level Salt Lake Center
10:34AM 47.7597 -110.9514 329° Northwest 366 421 38,000  Level Salt Lake Center
10:35AM 47.8469 -111.0275 330° Northwest 368 423 38,000  Level Salt Lake Center
10:36AM 47.9336 -111.1042 329° Northwest 368 423 38,000  Level Salt Lake Center
10:37AM 48.0211 -111.1825 329° Northwest 368 423 38,000  Level Salt Lake Center
10:38AM 48.1083 -111.2597 329° Northwest 368 423 38,000  Level Salt Lake Center
10:39AM 48.1964 -111.3381 329° Northwest 369 425 38,000  Level Salt Lake Center
10:40AM 48.2839 -111.4156 329° Northwest 368 423 38,000  Level Salt Lake Center
10:41AM 48.3869 -111.5097 329° Northwest 364 419 38,000  Level Salt Lake Center
10:42AM 48.4744 -111.5881 329° Northwest 367 422 38,000  Level Salt Lake Center
10:43AM 48.5603 -111.6664 329° Northwest 363 418 38,000  Level Salt Lake Center
10:44AM 48.6478 -111.7408 331° Northwest 362 417 38,000  Level Salt Lake Center
10:45AM 48.7414 -111.8011 337° Northwest 365 420 38,000  Level Salt Lake Center
10:46AM 48.8322 -111.8650 335° Northwest 362 417 38,000  Level Salt Lake Center
10:47AM 48.9233 -111.9281 336° Northwest 361 415 38,000  Level Salt Lake Center
10:48AM 49.0139 -111.9917 335° Northwest 361 415 38,000  Level Salt Lake Center
10:50AM 49.1167 -112.1000 325° Northwest 360 414 38,000  Level Edmonton Center
10:51AM 49.2167 -112.1667 336° Northwest 360 414 38,000  Level Edmonton Center
10:52AM 49.3167 -112.2333 337° Northwest 360 414 38,000  Level Edmonton Center
10:53AM 49.3833 -112.2833 334° Northwest 360 414 38,000  Level Edmonton Center
10:54AM 49.4833 -112.3667 332° Northwest 360 414 38,000  Level Edmonton Center
10:55AM 49.5667 -112.4167 339° North 360 414 38,000  Level Edmonton Center
10:56AM 49.6667 -112.5000 332° Northwest 360 414 38,000  Level Edmonton Center
10:57AM 49.7667 -112.5667 337° Northwest 360 414 38,000  Level Edmonton Center
10:58AM 49.8500 -112.6333 333° Northwest 360 414 38,000  Level Edmonton Center
10:59AM 49.9333 -112.7000 333° Northwest 360 414 38,000  Level Edmonton Center
11:00AM 50.0167 -112.7667 333° Northwest 350 403 38,000  Level Edmonton Center
11:01AM 50.1167 -112.8333 337° Northwest 350 403 38,000  Level Edmonton Center
11:02AM 50.2000 -112.8667 346° North 350 403 38,000  Level Edmonton Center
11:03AM 50.2833 -112.9500 327° Northwest 350 403 38,000  Level Edmonton Center
11:04AM 50.3833 -113.0167 337° Northwest 350 403 38,000  Level Edmonton Center
11:05AM 50.4667 -113.0833 333° Northwest 350 403 38,000  Level Edmonton Center
11:06AM 50.5667 -113.1500 337° Northwest 350 403 38,000  Level Edmonton Center
11:07AM 50.6500 -113.2167 333° Northwest 350 403 38,000  Level Edmonton Center
11:08AM 50.7333 -113.3000 328° Northwest 350 403 38,000  Level Edmonton Center
11:09AM 50.8167 -113.3667 333° Northwest 360 414 38,000  Level Edmonton Center
11:10AM 50.9167 -113.4333 337° Northwest 370 426 38,000  Level Edmonton Center
11:11AM 51.0167 -113.5000 337° Northwest 370 426 38,000  Level Edmonton Center
11:12AM 51.1000 -113.5833 328° Northwest 370 426 38,000  Level Edmonton Center
11:13AM 51.2000 -113.6500 337° Northwest 370 426 38,000  Level Edmonton Center
11:14AM 51.3000 -113.7333 332° Northwest 370 426 38,000  Level Edmonton Center
11:15AM 51.3833 -113.8000 333° Northwest 370 426 38,000  Level Edmonton Center
11:16AM 51.4833 -113.8667 337° Northwest 370 426 38,000  Level Edmonton Center
11:17AM 51.5667 -113.9167 340° North 370 426 38,000  Level Edmonton Center
11:18AM 51.6833 -113.9167 360° North 390 449 38,000  Level Edmonton Center
11:19AM 51.8000 -113.8833 10° North 400 460 38,000 -420 Level Edmonton Center
11:20AM 51.9000 -113.8167 22° Northeast 400 460 37,200 -1,800 Descending Edmonton Center
11:21AM 52.0167 -113.8000 North 410 472 34,500 -2,880 Descending Edmonton Center
11:22AM 52.1333 -113.7333 19° North 400 460 31,500 -3,120 Descending Edmonton Center
11:23AM 52.2333 -113.7000 12° North 390 449 28,300 -3,420 Descending Edmonton Center
11:24AM 52.3333 -113.6667 12° North 380 437 24,700 -3,540 Descending Edmonton Center
11:25AM 52.4333 -113.6000 22° Northeast 370 426 21,300 -3,300 Descending Edmonton Center
11:26AM 52.5333 -113.5667 11° North 350 403 18,100 -2,940 Descending Edmonton Center
11:27AM 52.6167 -113.5500 North 330 380 15,500 -2,640 Descending Edmonton Center
11:28AM 52.7000 -113.5500 360° North 300 345 12,900 -2,460 Descending Edmonton Center
11:29AM 52.7833 -113.5833 346° North 290 334 10,600 -1,920 Descending Edmonton Center
11:30AM 52.8500 -113.6333 336° Northwest 280 322 9,100 -1,620 Descending Edmonton Center
11:31AM 52.9333 -113.6833 340° North 270 311 7,400 -1,440 Descending Edmonton Center
11:32AM 53.0000 -113.6833 360° North 260 299 6,300 -1,200 Descending Edmonton Center
11:33AM 53.0667 -113.7333 336° Northwest 250 288 5,100 -660 Descending Edmonton Center
11:34AM 53.1333 -113.7833 336° Northwest 250 288 5,000 -240 Descending Edmonton Center
11:35AM 53.1833 -113.7333 31° Northeast 190 219 4,700 -600 Descending Edmonton Center
11:36AM 53.2167 -113.6833 42° Northeast 170 196 3,900 -900 Descending Edmonton Center
11:37AM 53.2500 -113.6667 17° North 160 184 2,900 -840 Descending Edmonton Center
11:38AM 53.3000 -113.6167 31° Northeast 120 138 2,300 -600 Descending Edmonton Center